createdAt,value
2022-08-10T00:05:01.858Z,14.18
2022-08-10T00:10:06.652Z,14.02
2022-08-10T00:15:12.212Z,13.32
2022-08-10T00:20:37.200Z,13.70
2022-08-10T00:25:40.944Z,14.70
2022-08-10T00:30:44.754Z,14.54
2022-08-10T00:35:49.874Z,14.56
2022-08-10T00:40:53.674Z,14.40
2022-08-10T00:45:59.661Z,14.47
2022-08-10T00:51:06.523Z,14.54
2022-08-10T00:57:05.137Z,13.77
2022-08-10T01:02:07.285Z,13.66
2022-08-10T01:07:15.928Z,14.24
2022-08-10T01:12:38.258Z,13.91
2022-08-10T01:17:53.815Z,13.73
2022-08-10T01:23:36.231Z,13.40
2022-08-10T01:28:53.311Z,14.18
2022-08-10T01:34:04.313Z,13.57
2022-08-10T01:39:09.578Z,13.92
2022-08-10T01:44:16.127Z,13.30
2022-08-10T01:49:27.652Z,12.86
2022-08-10T01:54:32.394Z,13.71
2022-08-10T01:59:38.267Z,13.97
2022-08-10T02:04:46.543Z,13.53
2022-08-10T02:09:53.996Z,13.36
2022-08-10T02:15:00.780Z,12.76
2022-08-10T02:20:09.858Z,13.33
2022-08-10T02:25:41.909Z,13.31
2022-08-10T02:30:40.362Z,13.94
2022-08-10T02:35:54.784Z,14.31
2022-08-10T02:45:15.846Z,14.27
2022-08-10T02:46:40.065Z,13.81
2022-08-10T02:52:06.955Z,13.06
2022-08-10T02:57:17.857Z,13.55
2022-08-10T03:02:28.949Z,13.71
2022-08-10T03:07:42.793Z,13.61
2022-08-10T03:12:53.913Z,12.89
2022-08-10T03:17:59.826Z,13.46
2022-08-10T03:23:06.942Z,13.59
2022-08-10T03:28:12.024Z,13.59
2022-08-10T03:33:27.233Z,13.53
2022-08-10T03:38:32.626Z,13.58
2022-08-10T03:43:37.016Z,13.32
2022-08-10T03:48:49.131Z,14.04
2022-08-10T03:54:04.839Z,14.66
2022-08-10T03:59:15.335Z,14.80
2022-08-10T04:04:24.058Z,15.02
2022-08-10T04:09:53.398Z,15.46
2022-08-10T04:14:55.555Z,15.82
2022-08-10T04:20:00.643Z,15.65
2022-08-10T04:25:07.964Z,16.72
2022-08-10T04:30:13.393Z,16.57
2022-08-10T04:35:19.294Z,16.56
2022-08-10T04:40:29.143Z,17.15
2022-08-10T04:45:47.441Z,17.77
2022-08-10T04:50:56.935Z,18.21
2022-08-10T04:56:05.101Z,17.24
2022-08-10T05:01:08.916Z,17.78
2022-08-10T05:06:12.791Z,17.06
2022-08-10T05:11:23.969Z,17.27
2022-08-10T05:16:32.482Z,19.13
2022-08-10T05:22:01.388Z,19.16
2022-08-10T05:27:09.912Z,19.26
2022-08-10T05:32:15.535Z,19.46
2022-08-10T05:38:13.035Z,19.48
2022-08-10T05:42:46.132Z,20.06
2022-08-10T05:48:42.082Z,20.92
2022-08-10T05:53:59.840Z,21.03
2022-08-10T05:58:39.829Z,20.48
2022-08-10T06:03:49.535Z,20.79
2022-08-10T06:08:54.971Z,20.05
2022-08-10T06:14:19.708Z,19.32
2022-08-10T06:19:34.911Z,20.88
2022-08-10T06:25:04.565Z,21.20
2022-08-10T06:30:20.077Z,21.61
2022-08-10T06:35:36.362Z,20.93
2022-08-10T06:40:44.646Z,20.38
2022-08-10T06:46:07.650Z,21.03
2022-08-10T06:51:18.867Z,20.51
2022-08-10T06:56:35.887Z,21.71
2022-08-10T07:01:51.353Z,20.58
2022-08-10T07:06:57.792Z,20.50
2022-08-10T07:12:07.485Z,21.04
2022-08-10T07:17:16.831Z,21.15
2022-08-10T07:23:02.569Z,21.16
2022-08-10T07:27:59.574Z,21.14
2022-08-10T07:33:08.742Z,22.64
2022-08-10T07:38:17.981Z,22.61
2022-08-10T07:43:24.516Z,21.99
2022-08-10T07:48:34.800Z,22.91
2022-08-10T07:53:44.792Z,22.37
2022-08-10T07:58:52.844Z,22.59
2022-08-10T08:04:10.752Z,21.53
2022-08-10T08:09:15.801Z,22.06
2022-08-10T08:14:22.034Z,22.96
2022-08-10T08:19:37.373Z,23.06
2022-08-10T08:24:45.864Z,23.03
2022-08-10T08:29:51.826Z,23.59
2022-08-10T08:34:58.930Z,23.00
2022-08-10T08:40:03.341Z,23.54
2022-08-10T08:45:17.054Z,23.38
2022-08-10T08:50:36.730Z,22.74
2022-08-10T08:56:04.156Z,22.66
2022-08-10T09:01:40.231Z,22.46
2022-08-10T09:07:07.392Z,23.30
2022-08-10T09:12:42.393Z,22.55
2022-08-10T09:17:56.247Z,22.58
2022-08-10T09:23:10.905Z,24.11
2022-08-10T09:28:21.016Z,23.67
2022-08-10T09:36:22.799Z,24.56
2022-08-10T09:40:06.547Z,22.60
2022-08-10T09:44:57.635Z,22.27
2022-08-10T09:50:09.842Z,24.56
2022-08-10T09:55:22.614Z,25.74
2022-08-10T10:00:53.224Z,25.05
2022-08-10T10:06:10.049Z,26.16
2022-08-10T10:11:20.966Z,26.93
2022-08-10T10:16:39.417Z,25.19
2022-08-10T10:21:54.478Z,24.63
2022-08-10T10:27:16.188Z,25.00
2022-08-10T10:32:37.116Z,24.53
2022-08-10T10:38:02.134Z,24.57
2022-08-10T10:43:27.447Z,25.64
2022-08-10T10:48:41.561Z,23.97
2022-08-10T10:53:54.211Z,23.07
2022-08-10T10:59:54.114Z,23.55
2022-08-10T11:04:48.169Z,25.19
2022-08-10T11:10:03.499Z,27.65
2022-08-10T11:15:21.499Z,25.12
2022-08-10T11:20:33.230Z,25.59
2022-08-10T11:25:42.607Z,25.07
2022-08-10T11:30:57.871Z,27.71
2022-08-10T11:36:05.750Z,28.54
2022-08-10T11:42:07.869Z,27.26
2022-08-10T11:46:54.589Z,27.76
2022-08-10T11:52:05.253Z,27.54
2022-08-10T11:57:11.605Z,28.78
2022-08-10T12:02:22.672Z,32.29
2022-08-10T12:10:01.832Z,31.76
2022-08-10T12:13:01.891Z,31.96
2022-08-10T12:18:16.676Z,27.38
2022-08-10T12:23:23.423Z,28.79
2022-08-10T12:28:50.506Z,29.51
2022-08-10T12:34:09.955Z,29.07
2022-08-10T12:39:20.173Z,26.99
2022-08-10T12:44:41.358Z,26.73
2022-08-10T12:50:26.690Z,28.63
2022-08-10T12:55:20.988Z,27.34
2022-08-10T13:00:30.958Z,26.88
2022-08-10T13:06:01.934Z,26.13
2022-08-10T13:12:35.624Z,26.27
2022-08-10T13:16:35.703Z,28.16
2022-08-10T13:21:42.748Z,29.43
2022-08-10T13:27:25.554Z,29.96
2022-08-10T13:32:22.290Z,28.42
2022-08-10T13:37:31.520Z,29.33
2022-08-10T13:42:38.772Z,31.86
2022-08-10T13:47:49.601Z,32.18
2022-08-10T13:53:01.468Z,31.59
2022-08-10T13:58:06.389Z,30.04
2022-08-10T14:03:12.147Z,30.78
2022-08-10T14:08:21.058Z,31.11
2022-08-10T14:13:27.307Z,31.18
2022-08-10T14:18:35.173Z,29.58
2022-08-10T14:23:52.260Z,29.65
2022-08-10T14:29:06.592Z,30.64
2022-08-10T14:34:14.616Z,30.56
2022-08-10T14:39:26.414Z,31.05
2022-08-10T14:44:32.266Z,30.56
2022-08-10T14:49:57.448Z,29.76
2022-08-10T14:55:19.061Z,29.65
2022-08-10T15:00:33.097Z,28.12
2022-08-10T15:05:42.036Z,25.18
2022-08-10T15:10:50.839Z,25.17
2022-08-10T15:16:11.930Z,25.03
2022-08-10T15:21:17.843Z,24.56
2022-08-10T15:26:27.698Z,25.30
2022-08-10T15:31:34.177Z,26.74
2022-08-10T15:37:36.154Z,28.45
2022-08-10T15:42:26.807Z,28.06
2022-08-10T15:47:45.149Z,27.08
2022-08-10T15:53:01.818Z,26.63
2022-08-10T15:58:10.889Z,25.70
2022-08-10T16:03:23.357Z,25.41
2022-08-10T16:08:29.992Z,26.96
2022-08-10T16:13:50.060Z,28.56
2022-08-10T16:19:04.096Z,28.18
2022-08-10T16:24:30.823Z,27.23
2022-08-10T16:29:56.318Z,26.84
2022-08-10T16:35:02.343Z,26.05
2022-08-10T16:40:14.661Z,25.23
2022-08-10T16:45:24.696Z,25.37
2022-08-10T16:50:30.771Z,25.35
2022-08-10T16:55:48.992Z,25.06
2022-08-10T17:01:01.920Z,24.69
2022-08-10T17:06:11.075Z,24.52
2022-08-10T17:11:16.777Z,24.48
2022-08-10T17:16:22.682Z,24.36
2022-08-10T17:21:31.315Z,23.88
2022-08-10T17:26:38.438Z,23.55
2022-08-10T17:31:54.519Z,22.98
2022-08-10T17:37:01.134Z,22.47
2022-08-10T17:42:06.120Z,22.45
2022-08-10T17:47:13.087Z,22.15
2022-08-10T17:52:22.262Z,22.32
2022-08-10T17:57:29.312Z,22.21
2022-08-10T18:02:40.299Z,22.01
2022-08-10T18:07:48.617Z,21.30
2022-08-10T18:12:55.413Z,21.56
2022-08-10T18:18:03.728Z,21.90
2022-08-10T18:23:09.267Z,22.02
2022-08-10T18:28:20.440Z,21.80
2022-08-10T18:33:30.183Z,21.89
2022-08-10T18:38:37.721Z,21.48
2022-08-10T18:44:05.495Z,21.35
2022-08-10T18:49:17.597Z,21.64
2022-08-10T18:54:34.521Z,21.63
2022-08-10T19:00:09.372Z,21.81
2022-08-10T19:05:30.425Z,21.76
2022-08-10T19:10:39.998Z,21.05
2022-08-10T19:15:49.609Z,20.96
2022-08-10T19:20:59.066Z,20.83
2022-08-10T19:26:42.781Z,20.91
2022-08-10T19:31:47.272Z,21.10
2022-08-10T19:37:04.151Z,20.85
2022-08-10T19:42:14.958Z,20.26
2022-08-10T19:47:27.598Z,20.57
2022-08-10T19:52:40.611Z,20.65
2022-08-10T19:57:52.196Z,20.81
2022-08-10T20:03:11.806Z,20.66
2022-08-10T20:08:23.030Z,20.57
2022-08-10T20:13:38.491Z,20.67
2022-08-10T20:18:44.675Z,20.39
2022-08-10T20:23:55.780Z,19.86
2022-08-10T20:29:08.052Z,20.06
2022-08-10T20:34:20.568Z,20.01
2022-08-10T20:39:44.245Z,19.88
2022-08-10T20:44:58.887Z,19.58
2022-08-10T20:50:18.303Z,19.52
2022-08-10T20:55:28.436Z,19.41
2022-08-10T21:00:47.595Z,18.54
2022-08-10T21:06:15.053Z,17.26
2022-08-10T21:11:36.380Z,16.37
2022-08-10T21:16:59.353Z,15.41
2022-08-10T21:22:16.541Z,15.49
2022-08-10T21:27:27.336Z,15.44
2022-08-10T21:32:56.766Z,16.05
2022-08-10T21:38:09.411Z,16.24
2022-08-10T21:43:49.619Z,16.52
2022-08-10T21:49:15.477Z,16.85
2022-08-10T21:54:44.919Z,17.14
2022-08-10T22:00:15.578Z,17.40
2022-08-10T22:05:45.517Z,16.69
2022-08-10T22:11:09.367Z,16.51
2022-08-10T22:16:46.641Z,16.28
2022-08-10T22:22:27.792Z,16.06
2022-08-10T22:27:53.756Z,16.50
2022-08-10T22:33:33.176Z,16.00
2022-08-10T22:39:10.954Z,16.48
2022-08-10T22:44:37.133Z,16.72
2022-08-10T22:49:41.411Z,16.72
2022-08-10T22:55:13.989Z,16.47
2022-08-10T23:00:20.277Z,16.40
2022-08-10T23:05:48.464Z,16.23
2022-08-10T23:11:04.308Z,16.59
2022-08-10T23:16:33.392Z,16.13
2022-08-10T23:22:03.211Z,15.92
2022-08-10T23:27:13.213Z,15.93
2022-08-10T23:32:38.643Z,16.11
2022-08-10T23:37:46.279Z,15.00
2022-08-10T23:42:52.956Z,15.01
2022-08-10T23:48:01.384Z,14.74
2022-08-10T23:53:13.407Z,14.06
2022-08-10T23:58:31.831Z,13.85
